Terminal Aerodrome Forecast
Issued by NWS

Home | Current Version | Previous Version | Text Only | Print | Product List | Glossary On
Versions: 1 2 3 4 5 6 7 8 9 10 11 12
021
FTUS45 KRIW 242338
TAFBPI
TAF
KBPI 242338Z 2500/2524 30012G18KT P6SM VCSH SCT025 BKN040
     FM250100 30010G15KT P6SM SCT050 BKN090
     FM250400 35007KT P6SM SCT050 BKN110
     FM251600 33016G28KT P6SM SCT025 BKN045
     FM252100 35013G24KT P6SM SCT035 BKN070=

USA.gov is the U.S. government's official web portal to all federal, state and local government web resources and services.